Time;durP1;ratioP1;P1;durP2;ratioP2;P2;SDS_P1;SDS_P2;PMS_P1;PMS_P2;Temp;Humidity;BMP_temperature;BMP_pressure;BME280_temperature;BME280_humidity;BME280_pressure;Samples;Min_cycle;Max_cycle;Signal;HPM_P1;HPM_P2
2023/07/20 00:00:58;;;;;;;31.52;19.45;;;15.40;99.90;;;;;;5068287;28;20175;-81
2023/07/20 00:03:25;;;;;;;21.73;17.05;;;15.30;99.90;;;;;;5068036;28;20250;-81
2023/07/20 00:05:51;;;;;;;27.75;20.27;;;15.30;99.90;;;;;;5067894;28;20221;-81
2023/07/20 00:08:18;;;;;;;34.45;20.92;;;15.30;99.90;;;;;;5058942;28;20253;-81
2023/07/20 00:10:44;;;;;;;30.73;21.77;;;15.30;99.90;;;;;;5048300;28;20211;-81
2023/07/20 00:13:11;;;;;;;30.15;21.38;;;15.30;99.90;;;;;;5048666;28;20198;-81
2023/07/20 00:15:37;;;;;;;32.05;22.35;;;15.20;99.90;;;;;;5047089;28;20175;-81
2023/07/20 00:18:04;;;;;;;36.08;21.45;;;15.30;99.90;;;;;;5048788;28;20607;-81
2023/07/20 00:20:30;;;;;;;35.80;23.05;;;15.20;99.90;;;;;;5048842;28;20176;-81
2023/07/20 00:22:57;;;;;;;35.70;22.70;;;15.20;99.90;;;;;;5047407;28;20187;-81
2023/07/20 00:25:24;;;;;;;35.17;22.33;;;15.20;99.90;;;;;;5046751;28;20558;-81
2023/07/20 00:27:50;;;;;;;34.38;21.90;;;15.10;99.90;;;;;;5047358;28;20195;-81
2023/07/20 00:30:16;;;;;;;37.17;21.98;;;15.10;99.90;;;;;;5048781;28;20690;-81
2023/07/20 00:32:45;;;;;;;33.42;23.98;;;15.10;99.90;;;;;;5047460;28;20243;-81
2023/07/20 00:35:11;;;;;;;30.80;22.40;;;15.10;99.90;;;;;;5048315;28;20179;-81
2023/07/20 00:37:38;;;;;;;35.20;23.42;;;15.10;99.90;;;;;;5046853;28;20207;-81
2023/07/20 00:40:07;;;;;;;38.00;23.25;;;15.10;99.90;;;;;;5047266;28;20179;-81
2023/07/20 00:42:33;;;;;;;38.13;25.75;;;15.10;99.90;;;;;;5047197;28;20175;-81
2023/07/20 00:44:59;;;;;;;36.90;24.65;;;15.10;99.90;;;;;;5047011;28;20175;-81
2023/07/20 00:47:25;;;;;;;35.13;24.85;;;15.00;99.90;;;;;;5046797;28;20175;-81
2023/07/20 00:49:51;;;;;;;33.95;25.05;;;15.10;99.90;;;;;;5047234;28;20191;-81
2023/07/20 00:52:20;;;;;;;28.40;22.42;;;15.10;99.90;;;;;;5045734;28;20195;-81
2023/07/20 00:54:46;;;;;;;38.45;25.67;;;15.10;99.90;;;;;;5045790;28;20175;-81
2023/07/20 00:57:15;;;;;;;33.65;24.63;;;15.10;99.90;;;;;;5045114;28;20202;-81
2023/07/20 00:59:41;;;;;;;34.65;24.77;;;15.10;99.90;;;;;;5046833;28;20254;-81
2023/07/20 01:02:06;;;;;;;38.38;24.50;;;15.00;99.90;;;;;;5045626;28;20190;-81
2023/07/20 01:04:33;;;;;;;35.00;24.45;;;15.00;99.90;;;;;;5045883;28;20191;-81
2023/07/20 01:07:31;;;;;;;34.47;24.90;;;15.10;99.90;;;;;;5047102;28;20305;-81
2023/07/20 01:10:16;;;;;;;45.67;26.30;;;15.10;99.90;;;;;;5046322;28;20246;-81
2023/07/20 01:12:43;;;;;;;40.67;26.05;;;15.10;99.90;;;;;;5045336;28;20182;-81
2023/07/20 01:15:09;;;;;;;42.92;27.38;;;15.10;99.90;;;;;;5047140;28;20249;-81
2023/07/20 01:17:36;;;;;;;41.75;26.92;;;15.10;99.90;;;;;;5045827;28;20175;-81
2023/07/20 01:20:02;;;;;;;37.33;24.13;;;15.00;99.90;;;;;;5045904;28;20175;-81
2023/07/20 01:23:05;;;;;;;39.85;26.92;;;15.00;99.90;;;;;;5046456;28;20258;-81
2023/07/20 01:25:31;;;;;;;42.00;26.20;;;15.10;99.90;;;;;;5046859;28;20726;-81
2023/07/20 01:28:19;;;;;;;41.65;26.98;;;15.00;99.90;;;;;;5045923;28;20190;-81
2023/07/20 01:31:23;;;;;;;40.03;26.83;;;15.00;99.90;;;;;;5045310;28;20629;-81
2023/07/20 01:33:52;;;;;;;43.13;25.50;;;15.10;99.90;;;;;;5045511;28;20171;-81
2023/07/20 01:36:19;;;;;;;36.92;24.40;;;15.10;99.90;;;;;;5044671;28;20183;-81
2023/07/20 01:38:46;;;;;;;34.47;24.27;;;15.00;99.90;;;;;;5057271;28;20203;-81
2023/07/20 01:41:12;;;;;;;39.35;24.33;;;15.00;99.90;;;;;;5065799;28;20269;-81
2023/07/20 01:43:37;;;;;;;37.40;23.98;;;14.90;99.90;;;;;;5065795;28;20190;-81
2023/07/20 01:46:03;;;;;;;39.45;24.27;;;14.90;99.90;;;;;;5064859;28;20178;-81
2023/07/20 01:48:29;;;;;;;36.88;25.25;;;14.90;99.90;;;;;;5065362;28;20251;-81
2023/07/20 01:50:55;;;;;;;40.92;24.83;;;14.90;99.90;;;;;;5065429;28;20206;-81
2023/07/20 01:53:21;;;;;;;33.38;26.20;;;14.90;99.90;;;;;;5064928;28;20276;-81
2023/07/20 01:55:47;;;;;;;38.08;25.20;;;14.80;99.90;;;;;;5065175;28;20178;-81
2023/07/20 01:58:13;;;;;;;37.50;24.27;;;14.80;99.90;;;;;;5065148;28;20198;-81
2023/07/20 02:00:38;;;;;;;35.08;24.23;;;14.80;99.90;;;;;;5064253;28;20201;-81
2023/07/20 02:03:04;;;;;;;37.28;24.73;;;14.90;99.90;;;;;;5064887;28;20185;-81
2023/07/20 02:05:30;;;;;;;35.88;23.17;;;14.90;99.90;;;;;;5064118;28;20655;-80
2023/07/20 02:07:56;;;;;;;40.28;23.88;;;14.90;99.90;;;;;;5064681;28;20228;-81
2023/07/20 02:10:22;;;;;;;32.50;23.73;;;14.80;99.90;;;;;;5065302;28;20245;-81
2023/07/20 02:12:48;;;;;;;37.17;24.60;;;14.80;99.90;;;;;;5065529;28;20677;-81
2023/07/20 02:15:16;;;;;;;36.83;23.58;;;14.80;99.90;;;;;;5064840;28;20186;-81
2023/07/20 02:17:42;;;;;;;33.58;22.98;;;14.80;99.90;;;;;;5065429;28;20214;-81
2023/07/20 02:20:10;;;;;;;32.80;22.83;;;14.80;99.90;;;;;;5063313;28;20178;-81
2023/07/20 02:22:37;;;;;;;33.85;22.20;;;14.80;99.90;;;;;;5064168;28;20178;-81
2023/07/20 02:25:04;;;;;;;35.22;21.15;;;14.80;99.90;;;;;;5064307;28;20540;-81
2023/07/20 02:27:30;;;;;;;25.05;19.10;;;14.80;99.90;;;;;;5063918;28;20213;-81
2023/07/20 02:29:56;;;;;;;32.53;21.08;;;14.90;99.90;;;;;;5063675;28;20181;-81
2023/07/20 02:32:22;;;;;;;26.08;18.40;;;14.90;99.90;;;;;;5065820;28;20171;-81
2023/07/20 02:34:48;;;;;;;29.88;19.20;;;14.90;99.90;;;;;;5068128;28;20227;-81
2023/07/20 02:37:13;;;;;;;27.08;18.70;;;14.90;99.90;;;;;;5068569;28;20170;-81
2023/07/20 02:39:39;;;;;;;28.60;19.33;;;14.80;99.90;;;;;;5069625;28;20201;-81
2023/07/20 02:42:06;;;;;;;37.00;19.35;;;14.80;99.90;;;;;;5070380;28;20181;-81
2023/07/20 02:44:31;;;;;;;29.05;20.38;;;14.80;99.90;;;;;;5068283;28;20231;-81
2023/07/20 02:46:57;;;;;;;26.38;19.38;;;14.80;99.90;;;;;;5068354;28;20210;-81
2023/07/20 02:49:23;;;;;;;24.67;18.25;;;14.80;99.90;;;;;;5067905;28;20206;-81
2023/07/20 02:51:49;;;;;;;34.08;19.85;;;14.80;99.90;;;;;;5068513;28;20206;-81
2023/07/20 02:54:15;;;;;;;28.08;19.60;;;14.70;99.90;;;;;;5067723;28;20206;-81
2023/07/20 02:56:41;;;;;;;24.48;19.25;;;14.70;99.90;;;;;;5067640;28;20254;-81
2023/07/20 02:59:07;;;;;;;29.40;19.30;;;14.70;99.90;;;;;;5069325;28;20194;-81
2023/07/20 03:01:32;;;;;;;28.67;20.60;;;14.70;99.90;;;;;;5068546;28;20186;-81
2023/07/20 03:03:58;;;;;;;27.02;19.00;;;14.70;99.90;;;;;;5068928;28;20189;-81
2023/07/20 03:06:24;;;;;;;28.95;19.65;;;14.70;99.90;;;;;;5069163;28;20174;-81
2023/07/20 03:08:51;;;;;;;30.00;18.55;;;14.70;99.90;;;;;;5068999;28;20211;-81
2023/07/20 03:11:19;;;;;;;27.80;19.98;;;14.80;99.90;;;;;;5068690;28;20306;-82
2023/07/20 03:13:45;;;;;;;33.05;20.10;;;14.80;99.90;;;;;;5069224;28;20196;-81
2023/07/20 03:16:15;;;;;;;31.02;21.17;;;14.80;99.90;;;;;;5067010;28;20206;-81
2023/07/20 03:18:43;;;;;;;29.63;19.40;;;14.80;99.90;;;;;;5065914;28;20626;-82
2023/07/20 03:21:13;;;;;;;27.15;18.83;;;14.80;99.90;;;;;;5065671;28;20281;-82
2023/07/20 03:23:39;;;;;;;28.73;19.95;;;14.80;99.90;;;;;;5067666;28;20177;-83
2023/07/20 03:26:08;;;;;;;26.17;18.90;;;14.80;99.90;;;;;;5069529;28;20181;-82
2023/07/20 03:28:34;;;;;;;27.17;19.73;;;14.80;99.90;;;;;;5070490;28;20263;-83
2023/07/20 03:31:00;;;;;;;32.45;21.02;;;14.80;99.90;;;;;;5071364;28;20206;-82
2023/07/20 03:33:28;;;;;;;35.05;21.55;;;14.80;99.90;;;;;;5070894;28;20174;-82
2023/07/20 03:35:55;;;;;;;30.60;20.70;;;14.80;99.90;;;;;;5074244;28;20178;-83
2023/07/20 03:38:21;;;;;;;32.80;20.98;;;14.80;99.90;;;;;;5063961;28;20211;-83
2023/07/20 03:40:59;;;;;;;32.92;22.08;;;14.80;99.90;;;;;;5053485;28;20183;-83
2023/07/20 03:43:26;;;;;;;33.70;22.55;;;14.80;99.90;;;;;;5054501;28;20179;-82
2023/07/20 03:45:52;;;;;;;32.40;22.33;;;14.80;99.90;;;;;;5052350;28;20206;-82
2023/07/20 03:48:21;;;;;;;34.67;23.08;;;14.70;99.90;;;;;;5052229;28;20266;-82
2023/07/20 03:50:48;;;;;;;34.60;21.98;;;14.70;99.90;;;;;;5053838;28;20191;-82
2023/07/20 03:53:15;;;;;;;31.10;19.98;;;14.70;99.90;;;;;;5055577;28;20179;-82
2023/07/20 03:55:41;;;;;;;35.13;20.38;;;14.70;99.90;;;;;;5055665;28;20183;-83
2023/07/20 03:58:08;;;;;;;32.47;19.45;;;14.70;99.90;;;;;;5056522;28;20199;-83
2023/07/20 04:00:34;;;;;;;32.72;19.15;;;14.70;99.90;;;;;;5056889;28;20190;-82
2023/07/20 04:03:00;;;;;;;27.02;18.02;;;14.70;99.90;;;;;;5055747;28;20187;-83
2023/07/20 04:05:26;;;;;;;22.95;17.70;;;14.70;99.90;;;;;;5055611;28;20186;-83
2023/07/20 04:07:52;;;;;;;22.50;16.05;;;14.60;99.90;;;;;;5055207;28;20230;-82
2023/07/20 04:10:19;;;;;;;21.67;15.48;;;14.60;99.90;;;;;;5054809;28;20248;-83
2023/07/20 04:12:47;;;;;;;25.13;16.67;;;14.60;99.90;;;;;;5053822;28;20178;-82
2023/07/20 04:15:13;;;;;;;29.70;17.63;;;14.60;99.90;;;;;;5054896;28;20201;-83
2023/07/20 04:17:40;;;;;;;32.35;18.90;;;14.60;99.90;;;;;;5055431;28;20175;-83
2023/07/20 04:20:07;;;;;;;27.63;18.17;;;14.60;99.90;;;;;;5055529;28;20195;-84
2023/07/20 04:22:32;;;;;;;22.58;18.98;;;14.50;99.90;;;;;;5055185;28;20206;-83
2023/07/20 04:24:58;;;;;;;28.15;20.05;;;14.50;99.90;;;;;;5055104;28;20163;-84
2023/07/20 04:27:24;;;;;;;28.83;19.35;;;14.50;99.90;;;;;;5055175;28;20189;-83
2023/07/20 04:29:50;;;;;;;26.70;19.52;;;14.50;99.90;;;;;;5055541;28;20202;-83
2023/07/20 04:32:15;;;;;;;24.83;18.10;;;14.50;99.90;;;;;;5055635;28;20210;-83
2023/07/20 04:34:42;;;;;;;24.65;19.40;;;14.50;99.90;;;;;;5055931;28;20265;-83
2023/07/20 04:37:08;;;;;;;29.30;20.23;;;14.60;99.90;;;;;;5054695;28;20186;-83
2023/07/20 04:39:34;;;;;;;28.83;19.38;;;14.60;99.90;;;;;;5055591;28;20203;-83
2023/07/20 04:42:00;;;;;;;33.95;22.95;;;14.60;99.90;;;;;;5054657;28;20164;-84
2023/07/20 04:44:25;;;;;;;33.63;22.98;;;14.60;99.90;;;;;;5055711;28;20194;-83
2023/07/20 04:46:51;;;;;;;37.05;23.80;;;14.60;99.90;;;;;;5055102;28;20171;-84
2023/07/20 04:49:17;;;;;;;38.03;25.95;;;14.60;99.90;;;;;;5054150;28;20203;-84
2023/07/20 04:51:43;;;;;;;44.88;28.45;;;14.70;99.90;;;;;;5055163;28;20253;-83
2023/07/20 04:54:09;;;;;;;45.83;28.52;;;14.70;99.90;;;;;;5054757;28;20632;-84
2023/07/20 04:56:34;;;;;;;44.67;29.80;;;14.70;99.90;;;;;;5049360;28;20179;-84
2023/07/20 04:59:00;;;;;;;48.65;29.98;;;14.70;99.90;;;;;;5051733;28;20202;-83
2023/07/20 05:01:29;;;;;;;45.05;28.50;;;14.70;99.90;;;;;;5053610;28;20178;-83
2023/07/20 05:03:54;;;;;;;47.63;29.90;;;14.80;99.90;;;;;;5054001;28;20562;-83
2023/07/20 05:06:20;;;;;;;41.67;27.50;;;14.80;99.90;;;;;;5053981;28;20187;-83
2023/07/20 05:08:46;;;;;;;41.90;26.23;;;14.90;99.90;;;;;;5053480;28;20227;-83
2023/07/20 05:11:12;;;;;;;40.45;27.27;;;14.90;99.90;;;;;;5054497;28;20210;-83
2023/07/20 05:13:38;;;;;;;36.47;26.63;;;14.90;99.90;;;;;;5053582;28;20179;-83
2023/07/20 05:16:04;;;;;;;39.50;25.40;;;14.90;99.90;;;;;;5053817;28;20171;-83
2023/07/20 05:18:30;;;;;;;37.03;25.38;;;15.00;99.90;;;;;;5054027;28;20178;-83
2023/07/20 05:20:56;;;;;;;44.42;28.92;;;15.00;99.90;;;;;;5053013;28;20183;-83
2023/07/20 05:23:22;;;;;;;45.63;30.88;;;15.00;99.90;;;;;;5052673;28;20199;-83
2023/07/20 05:25:54;;;;;;;45.10;30.00;;;15.00;99.90;;;;;;5050811;28;20183;-83
2023/07/20 05:28:20;;;;;;;38.17;26.40;;;15.00;99.90;;;;;;5052120;28;20217;-83
2023/07/20 05:30:46;;;;;;;38.17;27.10;;;15.00;99.90;;;;;;5051435;28;20199;-83
2023/07/20 05:33:12;;;;;;;40.50;28.67;;;15.10;99.90;;;;;;5053375;28;20276;-83
2023/07/20 05:35:37;;;;;;;36.78;27.52;;;15.20;99.90;;;;;;5053763;28;20179;-83
2023/07/20 05:38:04;;;;;;;37.47;27.38;;;15.20;99.90;;;;;;5048007;28;20225;-80
2023/07/20 05:40:30;;;;;;;38.63;26.92;;;15.20;99.90;;;;;;5048940;28;20183;-80
2023/07/20 05:42:56;;;;;;;34.90;25.98;;;15.30;99.90;;;;;;5050841;28;20190;-80
2023/07/20 05:45:22;;;;;;;38.85;26.55;;;15.30;99.90;;;;;;5050978;28;20175;-80
2023/07/20 05:47:48;;;;;;;34.42;24.13;;;15.40;99.90;;;;;;5050219;28;20233;-80
2023/07/20 05:50:14;;;;;;;30.17;23.15;;;15.30;99.90;;;;;;5051395;28;20182;-80
2023/07/20 05:52:40;;;;;;;34.88;22.88;;;15.30;99.90;;;;;;5054121;28;20182;-80
2023/07/20 05:55:07;;;;;;;29.17;22.35;;;15.30;99.90;;;;;;5054275;28;20170;-80
2023/07/20 05:57:33;;;;;;;29.17;21.90;;;15.40;99.90;;;;;;5058064;28;20167;-79
2023/07/20 05:59:59;;;;;;;29.77;22.85;;;15.40;99.90;;;;;;5058110;28;20163;-81
2023/07/20 06:02:25;;;;;;;26.58;20.92;;;15.40;99.90;;;;;;5054672;28;20183;-80
2023/07/20 06:04:50;;;;;;;28.00;20.35;;;15.30;99.90;;;;;;5047721;28;20213;-80
2023/07/20 06:07:16;;;;;;;27.85;20.20;;;15.30;99.90;;;;;;5048448;28;20202;-80
2023/07/20 06:09:42;;;;;;;25.08;19.45;;;15.30;99.90;;;;;;5050491;28;20207;-80
2023/07/20 06:12:08;;;;;;;25.58;20.52;;;15.30;99.90;;;;;;5049886;28;20207;-80
2023/07/20 06:14:34;;;;;;;27.95;19.80;;;15.30;99.90;;;;;;5050384;28;20171;-80
2023/07/20 06:17:00;;;;;;;26.33;19.10;;;15.30;99.90;;;;;;5050654;28;20266;-79
2023/07/20 06:19:26;;;;;;;25.35;20.13;;;15.20;99.90;;;;;;5040727;28;20199;-80
2023/07/20 06:21:52;;;;;;;23.40;20.20;;;15.20;99.90;;;;;;5037909;28;20186;-80
2023/07/20 06:24:18;;;;;;;21.92;18.40;;;15.20;99.90;;;;;;5039258;28;20176;-80
2023/07/20 06:26:44;;;;;;;19.70;16.88;;;15.30;99.90;;;;;;5036450;28;20556;-80
2023/07/20 06:29:10;;;;;;;22.63;18.10;;;15.40;99.90;;;;;;5036949;28;20199;-80
2023/07/20 06:31:36;;;;;;;24.27;18.95;;;15.40;99.90;;;;;;5037885;28;20285;-80
2023/07/20 06:34:03;;;;;;;22.65;16.88;;;15.40;99.90;;;;;;5036887;28;20229;-80
2023/07/20 06:36:28;;;;;;;18.98;15.82;;;15.50;99.90;;;;;;5037056;28;20229;-80
2023/07/20 06:38:58;;;;;;;19.23;15.35;;;15.50;99.90;;;;;;5038392;28;20202;-80
2023/07/20 06:41:23;;;;;;;19.70;15.13;;;15.50;99.90;;;;;;5036713;28;20175;-80
2023/07/20 06:43:50;;;;;;;19.98;13.98;;;15.60;99.90;;;;;;5036535;28;20187;-80
2023/07/20 06:46:15;;;;;;;14.13;12.63;;;15.50;99.90;;;;;;5036907;28;20183;-80
2023/07/20 06:48:41;;;;;;;24.40;13.30;;;15.50;99.90;;;;;;5036477;28;20229;-80
2023/07/20 06:51:07;;;;;;;19.50;14.90;;;15.60;99.90;;;;;;5036394;28;20206;-79
2023/07/20 06:53:33;;;;;;;16.35;14.00;;;15.60;99.90;;;;;;5036556;28;20182;-80
2023/07/20 06:55:59;;;;;;;14.48;12.60;;;15.60;99.90;;;;;;5038111;28;20167;-80
2023/07/20 06:58:25;;;;;;;16.25;12.57;;;15.60;99.90;;;;;;5036733;28;20566;-79
2023/07/20 07:00:51;;;;;;;14.57;12.45;;;15.70;99.90;;;;;;5035115;28;20205;-80
2023/07/20 07:03:17;;;;;;;20.00;15.63;;;15.80;99.90;;;;;;5034940;28;20179;-80
2023/07/20 07:05:45;;;;;;;26.40;20.40;;;15.90;99.90;;;;;;5035887;28;20179;-80
2023/07/20 07:08:10;;;;;;;26.33;20.23;;;16.00;99.90;;;;;;5034723;28;20229;-80
2023/07/20 07:10:36;;;;;;;25.40;20.45;;;16.00;99.90;;;;;;5035029;28;20206;-79
2023/07/20 07:13:03;;;;;;;22.77;17.52;;;16.10;99.90;;;;;;5035356;28;20179;-80
2023/07/20 07:15:29;;;;;;;14.77;12.30;;;16.10;99.90;;;;;;5035101;28;20281;-80
2023/07/20 07:17:56;;;;;;;12.60;10.88;;;16.00;99.90;;;;;;5033558;28;20659;-80
2023/07/20 07:20:23;;;;;;;14.75;11.63;;;15.90;99.90;;;;;;5033495;28;20253;-81
2023/07/20 07:22:51;;;;;;;12.77;11.18;;;15.90;99.90;;;;;;5036445;28;20649;-80
2023/07/20 07:25:17;;;;;;;14.18;12.35;;;15.90;99.90;;;;;;5037258;28;20171;-80
2023/07/20 07:27:43;;;;;;;16.73;13.55;;;16.00;99.90;;;;;;5036443;28;20199;-80
2023/07/20 07:30:10;;;;;;;25.50;20.27;;;16.20;99.90;;;;;;5037529;28;20214;-80
2023/07/20 07:32:35;;;;;;;22.98;19.92;;;16.30;99.90;;;;;;5036974;28;20184;-80
2023/07/20 07:35:01;;;;;;;21.50;18.25;;;16.40;99.90;;;;;;5037614;28;20713;-80
2023/07/20 07:37:27;;;;;;;17.23;13.70;;;16.40;99.90;;;;;;5037396;28;20178;-80
2023/07/20 07:39:53;;;;;;;12.13;9.75;;;16.50;99.90;;;;;;5036273;28;20697;-80
2023/07/20 07:42:18;;;;;;;13.20;11.05;;;16.50;99.90;;;;;;5037067;28;20185;-80
2023/07/20 07:44:45;;;;;;;11.73;9.50;;;16.50;99.90;;;;;;5036892;28;20236;-80
2023/07/20 07:47:11;;;;;;;10.60;9.45;;;16.70;99.90;;;;;;5036444;28;20183;-80
2023/07/20 07:49:36;;;;;;;11.57;8.57;;;16.80;99.90;;;;;;5036556;28;20206;-80
2023/07/20 07:52:03;;;;;;;17.35;13.20;;;16.90;99.90;;;;;;5036918;28;20207;-80
2023/07/20 07:54:29;;;;;;;10.60;9.43;;;17.10;99.90;;;;;;5038987;28;20179;-80
2023/07/20 07:56:55;;;;;;;8.55;7.72;;;17.20;99.90;;;;;;5039123;28;20171;-80
2023/07/20 07:59:20;;;;;;;8.23;7.13;;;17.20;99.90;;;;;;5039638;28;20747;-80
2023/07/20 08:01:46;;;;;;;10.18;8.02;;;17.20;99.90;;;;;;5039415;28;20183;-79
2023/07/20 08:04:13;;;;;;;15.35;7.90;;;17.10;99.90;;;;;;5039963;28;20182;-81
2023/07/20 08:06:39;;;;;;;9.75;6.35;;;17.00;99.90;;;;;;5039382;28;20275;-80
2023/07/20 08:09:04;;;;;;;7.25;6.43;;;16.80;99.90;;;;;;5038212;28;20634;-79
2023/07/20 08:11:32;;;;;;;7.82;6.28;;;16.60;99.90;;;;;;5038782;28;20223;-79
2023/07/20 08:13:59;;;;;;;6.60;5.53;;;16.60;99.90;;;;;;5039004;28;20266;-79
2023/07/20 08:16:25;;;;;;;5.53;4.43;;;16.60;99.90;;;;;;5039228;28;20247;-79
2023/07/20 08:18:51;;;;;;;5.13;4.65;;;16.70;99.90;;;;;;5040567;28;20219;-79
2023/07/20 08:21:17;;;;;;;5.60;4.65;;;16.80;99.90;;;;;;5040138;28;20182;-79
2023/07/20 08:23:43;;;;;;;3.90;3.50;;;17.00;99.90;;;;;;5040438;28;20175;-79
2023/07/20 08:26:08;;;;;;;5.85;4.05;;;17.10;99.90;;;;;;5039623;28;20179;-79
2023/07/20 08:28:35;;;;;;;4.10;3.70;;;17.30;99.90;;;;;;5037642;28;20199;-78
2023/07/20 08:31:00;;;;;;;6.63;5.30;;;17.50;99.90;;;;;;5038730;28;20230;-79
2023/07/20 08:33:29;;;;;;;6.00;5.40;;;17.70;99.90;;;;;;5038252;28;20662;-79
2023/07/20 08:35:56;;;;;;;10.05;9.02;;;18.20;99.90;;;;;;5038425;28;20179;-78
2023/07/20 08:38:22;;;;;;;12.98;10.88;;;18.20;99.90;;;;;;5038070;28;20209;-79
2023/07/20 08:40:48;;;;;;;10.07;8.40;;;18.00;99.90;;;;;;5038934;28;20179;-78
2023/07/20 08:43:18;;;;;;;8.50;7.60;;;17.60;99.90;;;;;;5038895;28;20179;-78
2023/07/20 08:45:46;;;;;;;7.65;6.70;;;17.40;99.90;;;;;;5037939;28;20644;-78
2023/07/20 08:48:12;;;;;;;7.15;5.88;;;17.10;99.90;;;;;;5037859;28;20234;-78
2023/07/20 08:50:39;;;;;;;6.65;5.60;;;16.90;99.90;;;;;;5038765;28;20573;-78
2023/07/20 08:53:05;;;;;;;7.88;5.90;;;16.90;99.90;;;;;;5039852;28;20182;-79
2023/07/20 08:55:31;;;;;;;10.10;8.50;;;16.80;99.90;;;;;;5040165;28;20270;-78
2023/07/20 08:58:00;;;;;;;11.23;10.13;;;16.90;99.90;;;;;;5040682;28;20277;-79
2023/07/20 09:00:26;;;;;;;10.18;9.18;;;16.80;99.90;;;;;;5040205;28;20187;-79
2023/07/20 09:02:57;;;;;;;10.45;9.02;;;17.10;99.90;;;;;;5040038;28;20236;-78
2023/07/20 09:05:24;;;;;;;10.02;8.98;;;17.90;99.90;;;;;;5039313;28;20195;-78
2023/07/20 09:07:52;;;;;;;8.73;7.78;;;18.90;99.90;;;;;;5040520;28;20214;-78
2023/07/20 09:10:23;;;;;;;7.53;6.70;;;19.20;99.90;;;;;;5039576;28;20256;-79
2023/07/20 09:12:49;;;;;;;8.63;6.50;;;18.90;99.90;;;;;;5041400;28;20218;-79
2023/07/20 09:15:16;;;;;;;8.90;6.88;;;19.10;99.90;;;;;;5039853;28;20171;-79
2023/07/20 09:17:53;;;;;;;8.20;7.40;;;19.40;99.90;;;;;;5039595;28;20223;-76
2023/07/20 09:20:20;;;;;;;7.22;6.47;;;19.70;99.90;;;;;;5038438;28;20175;-80
2023/07/20 09:22:46;;;;;;;6.97;5.35;;;20.10;99.90;;;;;;5039438;28;20175;-80
2023/07/20 09:25:17;;;;;;;4.68;3.92;;;20.30;99.90;;;;;;5041732;28;20264;-79
2023/07/20 09:27:45;;;;;;;4.45;3.60;;;20.40;99.90;;;;;;5040494;28;20253;-80
2023/07/20 09:30:13;;;;;;;4.00;3.53;;;20.40;99.90;;;;;;5040736;28;20557;-80
2023/07/20 09:32:44;;;;;;;3.75;3.45;;;20.50;99.90;;;;;;5040625;28;20213;-80
2023/07/20 09:35:15;;;;;;;4.25;3.38;;;20.80;99.90;;;;;;5041417;28;20167;-80
2023/07/20 09:37:54;;;;;;;6.75;2.95;;;21.10;99.90;;;;;;5042509;28;20194;-80
2023/07/20 09:40:20;;;;;;;3.08;2.50;;;21.40;99.90;;;;;;5042470;28;20187;-79
2023/07/20 09:42:46;;;;;;;4.65;2.33;;;21.40;99.90;;;;;;5043606;28;20201;-79
2023/07/20 09:45:12;;;;;;;2.65;2.45;;;21.50;99.90;;;;;;5044361;28;20260;-80
2023/07/20 09:47:39;;;;;;;5.90;3.05;;;21.50;99.90;;;;;;5045130;28;20591;-80
2023/07/20 09:50:13;;;;;;;4.20;3.30;;;21.90;99.90;;;;;;5040712;28;20175;-79
2023/07/20 09:52:40;;;;;;;3.67;3.28;;;21.60;99.90;;;;;;5042904;28;20164;-79
2023/07/20 09:55:08;;;;;;;4.05;3.22;;;20.90;99.90;;;;;;5036306;28;20654;-78
2023/07/20 09:57:35;;;;;;;4.20;3.60;;;20.40;99.90;;;;;;5035151;28;20175;-77
2023/07/20 10:00:14;;;;;;;2.65;2.45;;;20.00;99.90;;;;;;5036104;28;20209;-78
2023/07/20 10:02:44;;;;;;;3.13;2.42;;;19.90;99.90;;;;;;5034628;28;20179;-77
2023/07/20 10:05:14;;;;;;;3.67;2.00;;;20.40;99.90;;;;;;5034933;28;20270;-79
2023/07/20 10:07:45;;;;;;;3.80;1.85;;;20.90;99.90;;;;;;5035018;28;20288;-79
2023/07/20 10:10:13;;;;;;;2.13;1.90;;;21.30;99.90;;;;;;5035089;28;20175;-79
2023/07/20 10:12:41;;;;;;;1.70;1.60;;;21.60;99.90;;;;;;5035574;28;20186;-79
2023/07/20 10:15:15;;;;;;;2.72;1.50;;;21.50;99.90;;;;;;5035964;28;20179;-77
2023/07/20 10:18:08;;;;;;;1.92;1.50;;;21.50;99.90;;;;;;5033442;28;20262;-77
2023/07/20 10:20:36;;;;;;;1.50;1.40;;;21.10;99.90;;;;;;5035119;28;20232;-77
2023/07/20 10:23:03;;;;;;;1.58;1.40;;;20.70;99.90;;;;;;5033423;28;20177;-79
2023/07/20 10:25:30;;;;;;;1.50;1.40;;;20.40;99.90;;;;;;5034262;28;20175;-79
2023/07/20 10:27:58;;;;;;;1.70;1.60;;;20.20;99.90;;;;;;5033915;28;20257;-78
2023/07/20 10:30:25;;;;;;;1.65;1.55;;;20.00;99.90;;;;;;5033260;28;20175;-78
2023/07/20 10:32:52;;;;;;;2.53;1.60;;;20.00;99.90;;;;;;5033513;28;20702;-78
2023/07/20 10:35:18;;;;;;;1.88;1.60;;;19.80;99.90;;;;;;5034463;28;20217;-79
2023/07/20 10:37:48;;;;;;;1.60;1.50;;;19.70;99.90;;;;;;5033274;28;20287;-79
2023/07/20 10:40:31;;;;;;;2.75;1.80;;;19.60;99.90;;;;;;5034771;28;20644;-78
2023/07/20 10:43:01;;;;;;;1.85;1.75;;;19.60;99.90;;;;;;5033257;28;20171;-79
2023/07/20 10:45:41;;;;;;;2.22;1.70;;;19.90;99.90;;;;;;5034238;28;20163;-80
2023/07/20 10:48:22;;;;;;;1.67;1.58;;;20.40;99.90;;;;;;5033128;28;20206;-78
2023/07/20 10:51:14;;;;;;;1.50;1.40;;;20.80;99.90;;;;;;5033393;28;20198;-78
2023/07/20 10:53:40;;;;;;;1.83;1.38;;;21.30;99.90;;;;;;5036377;28;20167;-78
2023/07/20 10:56:13;;;;;;;1.63;1.52;;;21.30;99.90;;;;;;5035846;28;20175;-77
2023/07/20 10:58:40;;;;;;;1.90;1.40;;;21.40;99.90;;;;;;5037599;28;20249;-78
2023/07/20 11:01:06;;;;;;;1.42;1.30;;;21.50;99.90;;;;;;5037580;28;20175;-78
2023/07/20 11:03:41;;;;;;;1.27;1.20;;;21.50;99.90;;;;;;5020751;28;20186;-77
2023/07/20 11:06:28;;;;;;;2.95;1.40;;;21.00;99.90;;;;;;5043052;28;20166;-80
2023/07/20 11:12:36;;;;;;;3.05;1.50;;;20.70;99.90;;;;;;5051874;28;20257;-79
2023/07/20 11:15:49;;;;;;;1.50;1.40;;;20.40;99.90;;;;;;5038728;28;20215;-79
2023/07/20 11:18:39;;;;;;;1.67;1.45;;;20.50;99.90;;;;;;5017995;28;20202;-79
2023/07/20 11:21:13;;;;;;;2.28;1.50;;;21.00;99.90;;;;;;5049788;28;20652;-79
2023/07/20 11:23:40;;;;;;;2.90;1.40;;;21.40;99.90;;;;;;5050779;28;20222;-78
2023/07/20 11:26:06;;;;;;;1.88;1.50;;;21.80;99.90;;;;;;5049928;28;20175;-79
2023/07/20 11:28:33;;;;;;;1.85;1.42;;;21.90;99.90;;;;;;5049719;28;20687;-79
2023/07/20 11:30:59;;;;;;;1.55;1.42;;;21.90;99.90;;;;;;5049772;28;20203;-79
2023/07/20 11:33:26;;;;;;;3.47;1.58;;;21.70;99.90;;;;;;5049824;28;20259;-79
2023/07/20 11:35:53;;;;;;;1.75;1.60;;;21.60;99.90;;;;;;5048105;28;20176;-78
2023/07/20 11:38:18;;;;;;;1.60;1.50;;;21.00;99.90;;;;;;5049363;28;20199;-79
2023/07/20 11:40:45;;;;;;;1.90;1.60;;;21.00;99.90;;;;;;5048584;28;20186;-79
2023/07/20 11:43:12;;;;;;;2.60;1.40;;;21.20;99.90;;;;;;5050600;28;20179;-79
2023/07/20 11:45:39;;;;;;;4.60;2.20;;;21.60;99.90;;;;;;5051299;28;20197;-79
2023/07/20 11:48:05;;;;;;;2.75;1.95;;;21.40;99.90;;;;;;5054896;28;20206;-79
2023/07/20 11:50:31;;;;;;;2.13;1.40;;;21.30;99.90;;;;;;5055481;28;20211;-79
2023/07/20 11:52:57;;;;;;;2.45;1.50;;;21.60;99.90;;;;;;5056572;28;20186;-79
2023/07/20 11:55:23;;;;;;;2.50;1.45;;;22.20;99.90;;;;;;5056232;28;20182;-79
2023/07/20 11:58:03;;;;;;;2.28;1.60;;;22.30;99.90;;;;;;5056279;28;20195;-79
2023/07/20 12:00:29;;;;;;;1.70;1.60;;;22.40;99.90;;;;;;5054987;28;20186;-79
2023/07/20 12:02:55;;;;;;;1.33;1.23;;;22.60;99.90;;;;;;5052209;28;20199;-79
2023/07/20 12:05:22;;;;;;;2.55;1.60;;;22.90;99.90;;;;;;5054863;28;20547;-79
2023/07/20 12:07:51;;;;;;;2.75;1.50;;;23.00;99.90;;;;;;5054759;28;20238;-79
2023/07/20 12:10:25;;;;;;;2.47;1.80;;;22.80;99.90;;;;;;5052687;28;20171;-79
2023/07/20 12:12:50;;;;;;;2.45;1.63;;;23.10;99.90;;;;;;5052382;28;20155;-79
2023/07/20 12:15:20;;;;;;;2.45;1.70;;;23.20;99.90;;;;;;5054387;28;20206;-79
2023/07/20 12:17:46;;;;;;;2.30;2.10;;;23.10;99.90;;;;;;5053360;28;20202;-78
2023/07/20 12:20:12;;;;;;;1.80;1.70;;;23.40;99.90;;;;;;5053398;28;20188;-79
2023/07/20 12:22:43;;;;;;;2.15;1.60;;;23.50;99.90;;;;;;5052798;28;20171;-79
2023/07/20 12:25:09;;;;;;;2.95;1.73;;;23.00;99.90;;;;;;5053960;28;20167;-79
2023/07/20 12:27:38;;;;;;;1.80;1.70;;;22.60;99.90;;;;;;5052519;28;20180;-79
2023/07/20 12:30:08;;;;;;;1.92;1.80;;;22.00;99.90;;;;;;5054296;28;20199;-78
2023/07/20 12:32:34;;;;;;;2.70;2.05;;;21.90;99.90;;;;;;5053068;28;20209;-78
2023/07/20 12:35:00;;;;;;;1.80;1.70;;;22.00;99.90;;;;;;5053517;28;20171;-79
2023/07/20 12:37:26;;;;;;;1.80;1.70;;;22.10;99.90;;;;;;5053368;28;20183;-79
2023/07/20 12:39:52;;;;;;;3.67;2.08;;;22.50;99.90;;;;;;5053999;28;20554;-78